Time;durP1;ratioP1;P1;durP2;ratioP2;P2;SDS_P1;SDS_P2;PMS_P1;PMS_P2;Temp;Humidity;BMP_temperature;BMP_pressure;BME280_temperature;BME280_humidity;BME280_pressure;Samples;Min_cycle;Max_cycle;Signal;HPM_P1;HPM_P2
2021/11/30 00:01:24;;;;;;;29.47;17.30;;;;;;;;;;4996482;28;20702;-77
2021/11/30 00:03:52;;;;;;;24.80;16.67;;;;;;;;;;4996792;28;20258;-75
2021/11/30 00:06:20;;;;;;;27.13;16.57;;;;;;;;;;5012219;28;20230;-76
2021/11/30 00:08:48;;;;;;;25.37;16.13;;;;;;;;;;5013052;28;20230;-76
2021/11/30 00:11:14;;;;;;;31.70;17.67;;;;;;;;;;4996927;28;20277;-76
2021/11/30 00:13:43;;;;;;;26.87;16.87;;;;;;;;;;5029421;28;20223;-76
2021/11/30 00:16:10;;;;;;;27.00;17.03;;;;;;;;;;5012401;28;20213;-76
2021/11/30 00:18:41;;;;;;;27.87;17.20;;;;;;;;;;4997317;28;20744;-76
2021/11/30 00:21:07;;;;;;;27.37;17.83;;;;;;;;;;4993069;28;20243;-76
2021/11/30 00:23:33;;;;;;;23.00;16.30;;;;;;;;;;4980109;28;20221;-76
2021/11/30 00:26:01;;;;;;;29.77;18.20;;;;;;;;;;5034866;28;20215;-76
2021/11/30 00:28:27;;;;;;;28.33;18.90;;;;;;;;;;5002340;28;20226;-76
2021/11/30 00:30:57;;;;;;;36.90;22.47;;;;;;;;;;5015392;28;20768;-76
2021/11/30 00:33:27;;;;;;;29.73;18.17;;;;;;;;;;4997319;28;20212;-76
2021/11/30 00:35:53;;;;;;;28.33;18.33;;;;;;;;;;5032808;28;20350;-76
2021/11/30 00:38:19;;;;;;;27.30;17.27;;;;;;;;;;4986689;28;20717;-76
2021/11/30 00:40:45;;;;;;;29.80;18.37;;;;;;;;;;5016309;28;20294;-76
2021/11/30 00:43:18;;;;;;;31.03;18.27;;;;;;;;;;4998926;28;20256;-76
2021/11/30 00:46:33;;;;;;;25.50;16.87;;;;;;;;;;5004341;28;20242;-76
2021/11/30 00:48:40;;;;;;;28.80;17.97;;;;;;;;;;5028274;28;20219;-76
2021/11/30 00:51:10;;;;;;;24.50;16.03;;;;;;;;;;5018823;28;20307;-76
2021/11/30 00:53:38;;;;;;;25.57;15.67;;;;;;;;;;5036960;28;20374;-76
2021/11/30 00:56:06;;;;;;;27.80;17.73;;;;;;;;;;5018960;28;20306;-75
2021/11/30 00:58:32;;;;;;;26.63;17.40;;;;;;;;;;5002728;28;20640;-76
2021/11/30 01:01:01;;;;;;;28.97;18.27;;;;;;;;;;5035315;28;20250;-75
2021/11/30 01:03:28;;;;;;;27.40;16.77;;;;;;;;;;5018793;28;20220;-76
2021/11/30 01:05:54;;;;;;;28.70;16.53;;;;;;;;;;5002525;28;20752;-76
2021/11/30 01:08:20;;;;;;;26.27;17.10;;;;;;;;;;5017932;28;20299;-76
2021/11/30 01:10:49;;;;;;;28.73;18.47;;;;;;;;;;5020649;28;20226;-76
2021/11/30 01:13:15;;;;;;;26.47;16.93;;;;;;;;;;5002532;28;20224;-76
2021/11/30 01:15:41;;;;;;;27.30;17.17;;;;;;;;;;5035100;28;20643;-75
2021/11/30 01:18:06;;;;;;;24.50;17.17;;;;;;;;;;5036176;28;20235;-75
2021/11/30 01:20:32;;;;;;;29.67;18.80;;;;;;;;;;4999482;28;20216;-75
2021/11/30 01:23:00;;;;;;;26.67;17.43;;;;;;;;;;4997952;28;20226;-76
2021/11/30 01:25:28;;;;;;;25.67;17.40;;;;;;;;;;5014592;28;20220;-75
2021/11/30 01:27:56;;;;;;;29.67;17.70;;;;;;;;;;5008186;28;20243;-76
2021/11/30 01:30:26;;;;;;;25.50;18.27;;;;;;;;;;5018178;28;20223;-76
2021/11/30 01:32:55;;;;;;;27.80;18.47;;;;;;;;;;5003359;28;20227;-75
2021/11/30 01:35:23;;;;;;;26.57;16.90;;;;;;;;;;5033490;28;20208;-76
2021/11/30 01:37:49;;;;;;;26.10;18.13;;;;;;;;;;5015763;28;20224;-76
2021/11/30 01:40:18;;;;;;;27.37;18.57;;;;;;;;;;4999375;28;20271;-76
2021/11/30 01:42:50;;;;;;;24.00;17.30;;;;;;;;;;5015784;28;20226;-76
2021/11/30 01:45:44;;;;;;;40.57;24.90;;;;;;;;;;4983870;28;20636;-76
2021/11/30 01:50:55;;;;;;;32.93;21.33;;;;;;;;;;5020113;28;20219;-76
2021/11/30 01:53:21;;;;;;;30.60;21.03;;;;;;;;;;4989616;28;20219;-76
2021/11/30 01:55:47;;;;;;;26.23;18.10;;;;;;;;;;4980045;28;20308;-76
2021/11/30 01:58:13;;;;;;;26.80;19.50;;;;;;;;;;4991436;28;20216;-76
2021/11/30 02:00:42;;;;;;;26.40;19.73;;;;;;;;;;5015484;28;20208;-76
2021/11/30 02:03:12;;;;;;;20.97;15.50;;;;;;;;;;5031551;28;20247;-75
2021/11/30 02:05:39;;;;;;;24.47;17.03;;;;;;;;;;5015314;28;20223;-76
2021/11/30 02:08:07;;;;;;;23.10;15.07;;;;;;;;;;5031347;28;20231;-76
2021/11/30 02:10:36;;;;;;;22.80;16.47;;;;;;;;;;5015283;28;20216;-76
2021/11/30 02:13:01;;;;;;;22.20;15.77;;;;;;;;;;5015077;28;20329;-76
2021/11/30 02:15:27;;;;;;;21.10;15.40;;;;;;;;;;4998230;28;20226;-76
2021/11/30 02:17:57;;;;;;;18.70;15.73;;;;;;;;;;5011832;28;20633;-76
2021/11/30 02:20:22;;;;;;;20.40;15.63;;;;;;;;;;4995326;28;20232;-75
2021/11/30 02:22:58;;;;;;;17.87;13.97;;;;;;;;;;5010661;28;20231;-76
2021/11/30 02:25:23;;;;;;;14.07;12.27;;;;;;;;;;4995517;28;20307;-76
2021/11/30 02:27:54;;;;;;;16.87;13.03;;;;;;;;;;5012866;28;20292;-76
2021/11/30 02:30:19;;;;;;;17.10;13.03;;;;;;;;;;4998221;28;20595;-76
2021/11/30 02:32:45;;;;;;;15.27;11.33;;;;;;;;;;5011336;28;20216;-76
2021/11/30 02:35:15;;;;;;;16.17;12.07;;;;;;;;;;4994511;28;20251;-75
2021/11/30 02:37:50;;;;;;;14.90;12.40;;;;;;;;;;5009526;28;20260;-76
2021/11/30 02:40:18;;;;;;;13.63;11.97;;;;;;;;;;4980053;28;20622;-76
2021/11/30 02:42:49;;;;;;;14.83;11.30;;;;;;;;;;4990793;28;20299;-76
2021/11/30 02:45:14;;;;;;;13.43;10.10;;;;;;;;;;5010680;28;20233;-76
2021/11/30 02:47:42;;;;;;;11.47;10.00;;;;;;;;;;4991341;28;20227;-76
2021/11/30 02:50:09;;;;;;;12.43;11.13;;;;;;;;;;5014761;28;20227;-75
2021/11/30 02:52:38;;;;;;;10.23;8.87;;;;;;;;;;5014602;28;20647;-76
2021/11/30 02:55:08;;;;;;;14.53;10.90;;;;;;;;;;5013863;28;20223;-75
2021/11/30 02:57:41;;;;;;;13.37;10.43;;;;;;;;;;5005797;28;20231;-76
2021/11/30 03:00:11;;;;;;;12.07;10.80;;;;;;;;;;4996987;28;20247;-76
2021/11/30 03:02:41;;;;;;;9.77;7.93;;;;;;;;;;5015170;28;20613;-76
2021/11/30 03:05:09;;;;;;;12.00;10.70;;;;;;;;;;5014364;28;20336;-75
2021/11/30 03:07:38;;;;;;;11.80;9.53;;;;;;;;;;5014502;28;20599;-75
2021/11/30 03:10:09;;;;;;;10.27;9.17;;;;;;;;;;5029898;28;20298;-76
2021/11/30 03:12:35;;;;;;;9.07;7.93;;;;;;;;;;5014264;28;20307;-76
2021/11/30 03:15:13;;;;;;;12.57;9.80;;;;;;;;;;5013875;28;20248;-76
2021/11/30 03:17:41;;;;;;;12.13;9.47;;;;;;;;;;4978701;28;20279;-75
2021/11/30 03:20:12;;;;;;;9.47;8.27;;;;;;;;;;5021021;28;20225;-76
2021/11/30 03:22:43;;;;;;;10.67;9.47;;;;;;;;;;5014325;28;20251;-76
2021/11/30 03:25:11;;;;;;;9.97;8.97;;;;;;;;;;4993788;28;20224;-76
2021/11/30 03:27:39;;;;;;;9.40;7.93;;;;;;;;;;5025182;28;20216;-76
2021/11/30 03:30:08;;;;;;;8.80;8.00;;;;;;;;;;4993190;28;20309;-75
2021/11/30 03:35:05;;;;;;;9.10;6.83;;;;;;;;;;4993768;28;20236;-76
2021/11/30 03:37:30;;;;;;;9.63;7.60;;;;;;;;;;4999104;28;20231;-75
2021/11/30 03:39:57;;;;;;;9.37;8.37;;;;;;;;;;5029830;28;20601;-75
2021/11/30 03:42:23;;;;;;;8.83;7.30;;;;;;;;;;5026594;28;20282;-76
2021/11/30 03:44:53;;;;;;;10.90;8.43;;;;;;;;;;5011333;28;20222;-76
2021/11/30 03:47:23;;;;;;;9.83;8.10;;;;;;;;;;5028967;28;20215;-76
2021/11/30 03:49:48;;;;;;;10.33;8.13;;;;;;;;;;5029789;28;20295;-76
2021/11/30 03:52:18;;;;;;;9.27;8.23;;;;;;;;;;5013037;28;20248;-76
2021/11/30 03:54:49;;;;;;;10.70;8.03;;;;;;;;;;4996907;28;20614;-75
2021/11/30 03:57:15;;;;;;;9.07;7.70;;;;;;;;;;5016402;28;20235;-76
2021/11/30 03:59:43;;;;;;;7.40;6.63;;;;;;;;;;5009658;28;20228;-75
2021/11/30 04:02:08;;;;;;;8.53;6.93;;;;;;;;;;5013166;28;20224;-76
2021/11/30 04:04:42;;;;;;;7.53;6.73;;;;;;;;;;5009619;28;20225;-76
2021/11/30 04:07:10;;;;;;;7.40;6.67;;;;;;;;;;5010415;28;20228;-76
2021/11/30 04:09:36;;;;;;;9.63;7.17;;;;;;;;;;5012331;28;20227;-76
2021/11/30 04:12:04;;;;;;;7.30;6.57;;;;;;;;;;5013087;28;20220;-76
2021/11/30 04:14:30;;;;;;;7.57;5.03;;;;;;;;;;5028907;28;20686;-75
2021/11/30 04:16:58;;;;;;;5.90;5.30;;;;;;;;;;4996939;28;20228;-76
2021/11/30 04:19:24;;;;;;;7.60;5.13;;;;;;;;;;5030496;28;20724;-76
2021/11/30 04:21:52;;;;;;;5.47;4.93;;;;;;;;;;4996797;28;20228;-76
2021/11/30 04:24:24;;;;;;;5.57;5.07;;;;;;;;;;5032129;28;20709;-76
2021/11/30 04:26:50;;;;;;;5.77;5.27;;;;;;;;;;5022227;28;20287;-76
2021/11/30 04:29:18;;;;;;;6.10;5.47;;;;;;;;;;5021870;28;20228;-77
2021/11/30 04:31:46;;;;;;;5.70;4.97;;;;;;;;;;5013883;28;20269;-76
2021/11/30 04:34:16;;;;;;;5.80;5.23;;;;;;;;;;5028901;28;20228;-76
2021/11/30 04:36:47;;;;;;;4.67;4.27;;;;;;;;;;5013359;28;20270;-76
2021/11/30 04:39:15;;;;;;;4.33;3.97;;;;;;;;;;4996509;28;20232;-77
2021/11/30 04:41:44;;;;;;;4.10;3.77;;;;;;;;;;5029461;28;20397;-77
2021/11/30 04:44:10;;;;;;;3.87;3.57;;;;;;;;;;5010139;28;20231;-76
2021/11/30 04:46:48;;;;;;;4.00;3.67;;;;;;;;;;5010931;28;20223;-75
2021/11/30 04:49:27;;;;;;;4.27;3.87;;;;;;;;;;5004333;28;20251;-77
2021/11/30 04:51:53;;;;;;;3.20;2.93;;;;;;;;;;5015459;28;20773;-76
2021/11/30 04:54:22;;;;;;;3.73;3.20;;;;;;;;;;5012619;28;20222;-77
2021/11/30 04:56:48;;;;;;;3.80;3.50;;;;;;;;;;5013202;28;20680;-76
2021/11/30 04:59:17;;;;;;;3.83;3.53;;;;;;;;;;5018903;28;20220;-76
2021/11/30 05:01:47;;;;;;;5.10;4.60;;;;;;;;;;4994002;28;20610;-77
2021/11/30 05:04:13;;;;;;;4.47;4.07;;;;;;;;;;4984577;28;20223;-75
2021/11/30 05:06:39;;;;;;;5.23;4.73;;;;;;;;;;5029099;28;20220;-75
2021/11/30 05:09:05;;;;;;;5.00;3.90;;;;;;;;;;5012200;28;20227;-75
2021/11/30 05:11:35;;;;;;;6.70;4.90;;;;;;;;;;5000227;28;20239;-74
2021/11/30 05:14:00;;;;;;;5.30;4.87;;;;;;;;;;5000395;28;20254;-76
2021/11/30 05:16:28;;;;;;;4.33;3.93;;;;;;;;;;5015336;28;20208;-76
2021/11/30 05:18:56;;;;;;;5.87;5.30;;;;;;;;;;5033937;28;20220;-76
2021/11/30 05:21:24;;;;;;;4.13;3.80;;;;;;;;;;4999346;28;20235;-76
2021/11/30 05:23:59;;;;;;;7.33;5.00;;;;;;;;;;5032819;28;20216;-76
2021/11/30 05:26:27;;;;;;;5.57;5.00;;;;;;;;;;5031885;28;20867;-76
2021/11/30 05:28:55;;;;;;;5.63;5.03;;;;;;;;;;5022952;28;20226;-75
2021/11/30 05:31:21;;;;;;;6.40;5.80;;;;;;;;;;5010985;28;20224;-75
2021/11/30 05:33:49;;;;;;;6.40;5.80;;;;;;;;;;5031611;28;20219;-74
2021/11/30 05:36:19;;;;;;;7.10;5.70;;;;;;;;;;4995094;28;20225;-77
2021/11/30 05:38:48;;;;;;;6.73;6.13;;;;;;;;;;5012740;28;20228;-75
2021/11/30 05:41:16;;;;;;;6.77;6.07;;;;;;;;;;5015425;28;20228;-76
2021/11/30 05:43:42;;;;;;;8.03;7.20;;;;;;;;;;4997198;28;20220;-76
2021/11/30 05:46:09;;;;;;;7.47;6.77;;;;;;;;;;5028341;28;20223;-76
2021/11/30 05:48:35;;;;;;;7.33;6.63;;;;;;;;;;4978356;28;20303;-75
2021/11/30 05:51:02;;;;;;;7.80;7.03;;;;;;;;;;4998601;28;20231;-76
2021/11/30 05:53:29;;;;;;;6.93;6.30;;;;;;;;;;5026325;28;20235;-76
2021/11/30 05:55:59;;;;;;;7.80;7.00;;;;;;;;;;4997254;28;20224;-77
2021/11/30 05:58:26;;;;;;;8.90;8.10;;;;;;;;;;5039236;28;20227;-76
2021/11/30 06:01:00;;;;;;;7.83;7.03;;;;;;;;;;4999243;28;20605;-76
2021/11/30 06:03:45;;;;;;;7.77;6.97;;;;;;;;;;5015141;28;20709;-75
2021/11/30 06:06:13;;;;;;;6.90;6.30;;;;;;;;;;4998524;28;20281;-76
2021/11/30 06:08:38;;;;;;;7.93;7.13;;;;;;;;;;5015207;28;20630;-75
2021/11/30 06:11:04;;;;;;;7.43;6.80;;;;;;;;;;5014583;28;20224;-76
2021/11/30 06:13:32;;;;;;;9.73;6.77;;;;;;;;;;5031848;28;20725;-75
2021/11/30 06:15:58;;;;;;;8.67;7.80;;;;;;;;;;5011902;28;20347;-74
2021/11/30 06:18:26;;;;;;;7.73;6.93;;;;;;;;;;5012934;28;20291;-75
2021/11/30 06:20:52;;;;;;;8.07;7.27;;;;;;;;;;4999943;28;20706;-75
2021/11/30 06:23:19;;;;;;;8.77;7.93;;;;;;;;;;5028602;28;20231;-74
2021/11/30 06:25:45;;;;;;;8.30;7.50;;;;;;;;;;5030873;28;20216;-75
2021/11/30 06:28:13;;;;;;;7.97;7.00;;;;;;;;;;5002273;28;20231;-76
2021/11/30 06:30:41;;;;;;;8.57;7.87;;;;;;;;;;5026735;28;20220;-75
2021/11/30 06:33:09;;;;;;;7.80;7.10;;;;;;;;;;5015199;28;20258;-76
2021/11/30 06:35:42;;;;;;;10.03;9.13;;;;;;;;;;4978515;28;20278;-77
2021/11/30 06:38:10;;;;;;;9.17;8.33;;;;;;;;;;5029544;28;20223;-76
2021/11/30 06:40:38;;;;;;;9.70;8.90;;;;;;;;;;5013513;28;20702;-76
2021/11/30 06:43:03;;;;;;;9.07;8.23;;;;;;;;;;5014130;28;20220;-76
2021/11/30 06:45:29;;;;;;;8.33;7.57;;;;;;;;;;5014017;28;20219;-77
2021/11/30 06:47:57;;;;;;;10.23;9.23;;;;;;;;;;5013354;28;20254;-74
2021/11/30 06:50:23;;;;;;;10.30;9.40;;;;;;;;;;5013846;28;20753;-77
2021/11/30 06:52:49;;;;;;;8.27;7.43;;;;;;;;;;5014395;28;20224;-75
2021/11/30 06:55:20;;;;;;;9.83;8.90;;;;;;;;;;5028267;28;20226;-76
2021/11/30 06:57:48;;;;;;;9.80;8.90;;;;;;;;;;5039250;28;20223;-74
2021/11/30 07:00:22;;;;;;;10.70;9.57;;;;;;;;;;5042020;28;20230;-75
2021/11/30 07:02:51;;;;;;;10.60;9.57;;;;;;;;;;5025037;28;20628;-74
2021/11/30 07:08:22;;;;;;;10.70;9.60;;;;;;;;;;5014258;28;20671;-74
2021/11/30 07:10:54;;;;;;;12.63;11.33;;;;;;;;;;5014870;28;20760;-76
2021/11/30 07:13:27;;;;;;;11.93;10.60;;;;;;;;;;5014011;28;20713;-75
2021/11/30 07:16:00;;;;;;;11.70;10.50;;;;;;;;;;5014849;28;20580;-76
2021/11/30 07:18:28;;;;;;;12.93;11.73;;;;;;;;;;4998406;28;20219;-75
2021/11/30 07:20:54;;;;;;;11.90;10.70;;;;;;;;;;5013816;28;20578;-76
2021/11/30 07:23:19;;;;;;;11.20;10.03;;;;;;;;;;4996966;28;20235;-76
2021/11/30 07:25:45;;;;;;;10.50;9.50;;;;;;;;;;5030257;28;20303;-75
2021/11/30 07:28:13;;;;;;;11.77;10.73;;;;;;;;;;5018170;28;20221;-75
2021/11/30 07:30:43;;;;;;;11.30;10.20;;;;;;;;;;4991235;28;20608;-75
2021/11/30 07:33:08;;;;;;;10.23;9.23;;;;;;;;;;5025785;28;20217;-75
2021/11/30 07:35:34;;;;;;;10.70;9.60;;;;;;;;;;5010296;28;20247;-75
2021/11/30 07:38:02;;;;;;;10.37;9.37;;;;;;;;;;4995908;28;20226;-75
2021/11/30 07:40:30;;;;;;;11.07;10.07;;;;;;;;;;5008085;28;20263;-74
2021/11/30 07:42:56;;;;;;;10.87;9.87;;;;;;;;;;5021807;28;20232;-75
2021/11/30 07:45:21;;;;;;;10.83;9.83;;;;;;;;;;5034238;28;20238;-76
2021/11/30 07:47:50;;;;;;;10.93;9.87;;;;;;;;;;5032859;28;20224;-75
2021/11/30 07:50:15;;;;;;;11.80;10.70;;;;;;;;;;4997240;28;20307;-76
2021/11/30 07:52:46;;;;;;;11.47;10.43;;;;;;;;;;5015231;28;20639;-75
2021/11/30 07:55:13;;;;;;;11.63;10.47;;;;;;;;;;4980883;28;20220;-76
2021/11/30 07:57:39;;;;;;;12.70;10.87;;;;;;;;;;5037747;28;20223;-75
2021/11/30 08:00:10;;;;;;;12.03;10.83;;;;;;;;;;4985329;28;20232;-76
2021/11/30 08:02:41;;;;;;;13.67;10.90;;;;;;;;;;5007064;28;20265;-75
2021/11/30 08:05:07;;;;;;;11.37;10.27;;;;;;;;;;4979965;28;20216;-75
2021/11/30 08:07:37;;;;;;;13.00;11.63;;;;;;;;;;5013665;28;20251;-75
2021/11/30 08:10:13;;;;;;;11.87;10.67;;;;;;;;;;5029310;28;20279;-76
2021/11/30 08:12:38;;;;;;;12.77;11.50;;;;;;;;;;5014147;28;20220;-75
2021/11/30 08:15:07;;;;;;;13.33;11.93;;;;;;;;;;4996405;28;20636;-74
2021/11/30 08:17:35;;;;;;;14.00;12.27;;;;;;;;;;5013154;28;20220;-75
2021/11/30 08:20:02;;;;;;;11.83;10.57;;;;;;;;;;5031453;28;20224;-76
2021/11/30 08:22:27;;;;;;;14.40;11.83;;;;;;;;;;5012740;28;20220;-75
2021/11/30 08:24:53;;;;;;;12.03;10.87;;;;;;;;;;5029542;28;20289;-75
2021/11/30 08:27:19;;;;;;;12.40;11.13;;;;;;;;;;5001184;28;20219;-75
2021/11/30 08:29:47;;;;;;;13.17;11.60;;;;;;;;;;4984201;28;20220;-76
2021/11/30 08:32:13;;;;;;;13.73;11.40;;;;;;;;;;5025321;28;20220;-75
2021/11/30 08:34:41;;;;;;;11.80;10.37;;;;;;;;;;5008848;28;20228;-75
2021/11/30 08:37:14;;;;;;;12.90;9.93;;;;;;;;;;5012642;28;20246;-75
2021/11/30 08:39:39;;;;;;;9.90;8.93;;;;;;;;;;5029794;28;20614;-75
2021/11/30 08:42:11;;;;;;;12.70;9.73;;;;;;;;;;4997481;28;20224;-75
2021/11/30 08:44:39;;;;;;;11.67;8.37;;;;;;;;;;5016054;28;20291;-75
2021/11/30 08:47:06;;;;;;;10.37;8.87;;;;;;;;;;5000489;28;20299;-75
2021/11/30 08:49:35;;;;;;;10.87;9.73;;;;;;;;;;4999835;28;20318;-75
2021/11/30 08:52:10;;;;;;;12.17;9.97;;;;;;;;;;5014942;28;20231;-76
2021/11/30 08:54:38;;;;;;;14.83;9.30;;;;;;;;;;5016549;28;20212;-75
2021/11/30 08:57:04;;;;;;;14.57;9.53;;;;;;;;;;5035651;28;20212;-74
2021/11/30 08:59:32;;;;;;;11.30;9.23;;;;;;;;;;5031663;28;20243;-75
2021/11/30 09:01:57;;;;;;;19.27;10.70;;;;;;;;;;5000637;28;20871;-75
2021/11/30 09:04:26;;;;;;;13.83;9.73;;;;;;;;;;4996164;28;20295;-74
2021/11/30 09:06:56;;;;;;;15.90;8.70;;;;;;;;;;5030217;28;20228;-76
2021/11/30 09:09:22;;;;;;;10.97;7.93;;;;;;;;;;4996892;28;20235;-74
2021/11/30 09:11:47;;;;;;;10.50;7.43;;;;;;;;;;5014168;28;20216;-73
2021/11/30 09:14:18;;;;;;;15.83;8.37;;;;;;;;;;4996191;28;20205;-74
2021/11/30 09:16:44;;;;;;;18.93;8.37;;;;;;;;;;4982146;28;20224;-75
2021/11/30 09:19:10;;;;;;;10.03;7.33;;;;;;;;;;5009436;28;20262;-75
2021/11/30 09:21:38;;;;;;;14.60;7.50;;;;;;;;;;5027088;28;20243;-75
2021/11/30 09:24:04;;;;;;;12.20;6.47;;;;;;;;;;4998803;28;20211;-76
2021/11/30 09:26:32;;;;;;;13.50;8.10;;;;;;;;;;5030325;28;20227;-73
2021/11/30 09:28:58;;;;;;;14.57;7.07;;;;;;;;;;4997449;28;20387;-75
2021/11/30 09:31:29;;;;;;;14.83;6.77;;;;;;;;;;5008390;28;20223;-75
2021/11/30 09:33:58;;;;;;;11.00;5.93;;;;;;;;;;5000180;28;20289;-75
2021/11/30 09:36:27;;;;;;;13.13;7.20;;;;;;;;;;5028887;28;20278;-75
2021/11/30 09:38:53;;;;;;;9.30;5.20;;;;;;;;;;5045309;28;20717;-75
2021/11/30 09:41:22;;;;;;;12.93;6.00;;;;;;;;;;4997637;28;20212;-75
2021/11/30 09:43:49;;;;;;;9.00;4.90;;;;;;;;;;5022276;28;20254;-76
2021/11/30 09:46:17;;;;;;;9.67;4.50;;;;;;;;;;5015512;28;20804;-78
2021/11/30 09:48:43;;;;;;;11.37;3.87;;;;;;;;;;4996080;28;20245;-76
2021/11/30 09:51:09;;;;;;;10.00;3.33;;;;;;;;;;5031678;28;20228;-76
2021/11/30 09:53:37;;;;;;;12.00;3.57;;;;;;;;;;5029723;28;20228;-75
2021/11/30 09:56:05;;;;;;;11.53;3.17;;;;;;;;;;5020710;28;20230;-79
2021/11/30 09:58:31;;;;;;;7.03;2.60;;;;;;;;;;5039632;28;20227;-76
2021/11/30 10:00:58;;;;;;;8.90;2.70;;;;;;;;;;5015783;28;20228;-76
2021/11/30 10:03:24;;;;;;;8.07;2.40;;;;;;;;;;5014741;28;20235;-76
2021/11/30 10:05:54;;;;;;;11.80;2.57;;;;;;;;;;5013664;28;20219;-76
2021/11/30 10:08:23;;;;;;;9.67;2.20;;;;;;;;;;4983394;28;20307;-76
2021/11/30 10:10:52;;;;;;;9.47;2.70;;;;;;;;;;5016004;28;20254;-76
2021/11/30 10:13:22;;;;;;;14.37;2.80;;;;;;;;;;5013120;28;20297;-76
2021/11/30 10:16:00;;;;;;;10.83;2.40;;;;;;;;;;5029729;28;20224;-76
2021/11/30 10:18:28;;;;;;;14.47;2.60;;;;;;;;;;5015724;28;20254;-76
2021/11/30 10:20:58;;;;;;;16.40;3.23;;;;;;;;;;5031199;28;20224;-76
2021/11/30 10:23:29;;;;;;;8.87;2.53;;;;;;;;;;5031009;28;20766;-77
2021/11/30 10:25:54;;;;;;;14.77;3.27;;;;;;;;;;5015306;28;20306;-76
2021/11/30 10:28:28;;;;;;;11.97;2.60;;;;;;;;;;4981700;28;20224;-76
2021/11/30 10:30:53;;;;;;;13.27;3.33;;;;;;;;;;4996581;28;20224;-76
2021/11/30 10:33:26;;;;;;;17.10;3.40;;;;;;;;;;5000895;28;20267;-76
2021/11/30 10:36:01;;;;;;;10.37;2.63;;;;;;;;;;5047843;28;20220;-78
2021/11/30 10:38:37;;;;;;;12.90;3.17;;;;;;;;;;4991853;28;20235;-76
2021/11/30 10:41:16;;;;;;;11.57;2.87;;;;;;;;;;5016424;28;20254;-77
2021/11/30 10:43:50;;;;;;;12.83;2.63;;;;;;;;;;5013080;28;20235;-75
2021/11/30 10:46:23;;;;;;;11.10;2.67;;;;;;;;;;5013597;28;20216;-75
2021/11/30 10:48:51;;;;;;;8.43;2.53;;;;;;;;;;5028157;28;20228;-77
2021/11/30 10:51:21;;;;;;;10.93;2.33;;;;;;;;;;5019325;28;20338;-76
2021/11/30 10:53:48;;;;;;;12.23;2.70;;;;;;;;;;5011431;28;20212;-76
2021/11/30 10:56:19;;;;;;;11.37;2.33;;;;;;;;;;5013215;28;20238;-78
2021/11/30 10:58:45;;;;;;;8.30;2.47;;;;;;;;;;5022395;28;20243;-76
2021/11/30 11:01:18;;;;;;;11.63;3.07;;;;;;;;;;4994927;28;20236;-76
2021/11/30 11:04:05;;;;;;;8.40;2.40;;;;;;;;;;4996024;28;20225;-76
2021/11/30 11:06:31;;;;;;;10.13;2.50;;;;;;;;;;4992711;28;20209;-76
2021/11/30 11:09:05;;;;;;;7.20;2.40;;;;;;;;;;5005086;28;20224;-77
2021/11/30 11:11:43;;;;;;;9.27;1.83;;;;;;;;;;5012092;28;20228;-76
2021/11/30 11:14:25;;;;;;;8.90;2.27;;;;;;;;;;5030381;28;20212;-76
2021/11/30 11:16:52;;;;;;;7.93;2.30;;;;;;;;;;4995651;28;20259;-77
2021/11/30 11:19:21;;;;;;;9.30;2.17;;;;;;;;;;4984533;28;20219;-77
2021/11/30 11:21:49;;;;;;;8.43;2.57;;;;;;;;;;4994279;28;20251;-76
2021/11/30 11:24:21;;;;;;;10.97;2.77;;;;;;;;;;5029651;28;20208;-77
2021/11/30 11:26:57;;;;;;;12.33;2.23;;;;;;;;;;5015304;28;20224;-77
2021/11/30 11:29:27;;;;;;;10.67;2.77;;;;;;;;;;5015742;28;20228;-77
2021/11/30 11:31:57;;;;;;;9.40;2.03;;;;;;;;;;5014929;28;20216;-76
2021/11/30 11:34:28;;;;;;;8.10;2.13;;;;;;;;;;4993249;28;20221;-76
2021/11/30 11:36:57;;;;;;;11.07;2.27;;;;;;;;;;5011752;28;20219;-75
2021/11/30 11:39:26;;;;;;;15.73;2.30;;;;;;;;;;5008878;28;20648;-76
2021/11/30 11:42:08;;;;;;;10.23;2.57;;;;;;;;;;5023593;28;20249;-76
2021/11/30 11:44:36;;;;;;;11.13;2.13;;;;;;;;;;4995419;28;20223;-75
2021/11/30 11:47:13;;;;;;;8.30;2.50;;;;;;;;;;5012763;28;20216;-76
2021/11/30 11:49:42;;;;;;;11.10;2.67;;;;;;;;;;5009164;28;20224;-76
2021/11/30 11:52:26;;;;;;;11.50;2.37;;;;;;;;;;4996033;28;20270;-76
2021/11/30 11:54:58;;;;;;;12.23;3.33;;;;;;;;;;5006033;28;20224;-75
2021/11/30 11:57:24;;;;;;;15.30;3.57;;;;;;;;;;5027857;28;20691;-75
2021/11/30 11:59:52;;;;;;;8.97;2.50;;;;;;;;;;5011154;28;20223;-75
2021/11/30 12:02:21;;;;;;;11.53;2.80;;;;;;;;;;5004756;28;20247;-75
2021/11/30 12:04:51;;;;;;;10.30;2.30;;;;;;;;;;5021914;28;20709;-75
2021/11/30 12:07:21;;;;;;;12.67;2.53;;;;;;;;;;5029517;28;20270;-76
2021/11/30 12:09:47;;;;;;;15.17;2.67;;;;;;;;;;5011956;28;20311;-77
2021/11/30 12:12:16;;;;;;;9.90;2.60;;;;;;;;;;5010307;28;20857;-77
2021/11/30 12:14:46;;;;;;;12.70;2.53;;;;;;;;;;5026487;28;20226;-77
2021/11/30 12:17:21;;;;;;;10.10;2.23;;;;;;;;;;5029693;28;20231;-77
2021/11/30 12:19:51;;;;;;;14.53;2.77;;;;;;;;;;5012911;28;20224;-76
2021/11/30 12:22:41;;;;;;;11.93;2.17;;;;;;;;;;5013096;28;20235;-77
2021/11/30 12:25:43;;;;;;;8.40;2.50;;;;;;;;;;5032261;28;20235;-78
2021/11/30 12:28:10;;;;;;;10.80;2.80;;;;;;;;;;5023190;28;20216;-78
2021/11/30 12:30:47;;;;;;;9.80;3.27;;;;;;;;;;4999718;28;20255;-78
2021/11/30 12:33:18;;;;;;;8.67;2.77;;;;;;;;;;5015373;28;20235;-78
2021/11/30 12:35:56;;;;;;;11.57;3.13;;;;;;;;;;4999269;28;20224;-78
2021/11/30 12:38:28;;;;;;;11.17;2.60;;;;;;;;;;5016595;28;20239;-78
2021/11/30 12:40:56;;;;;;;11.87;3.10;;;;;;;;;;5030975;28;20249;-77
2021/11/30 12:43:24;;;;;;;8.03;2.50;;;;;;;;;;5031170;28;20228;-77
2021/11/30 12:45:57;;;;;;;12.67;2.90;;;;;;;;;;5013486;28;20764;-77
2021/11/30 12:48:37;;;;;;;14.97;2.97;;;;;;;;;;5012844;28;20907;-77
2021/11/30 12:51:27;;;;;;;9.93;2.13;;;;;;;;;;5014122;28;20273;-77
2021/11/30 12:53:54;;;;;;;11.00;2.73;;;;;;;;;;5013596;28;20756;-77
2021/11/30 12:56:46;;;;;;;12.03;3.03;;;;;;;;;;5012296;28;20248;-76
2021/11/30 12:59:13;;;;;;;10.97;2.80;;;;;;;;;;5022290;28;20227;-77
2021/11/30 13:01:41;;;;;;;10.83;3.03;;;;;;;;;;5011772;28;20228;-77
2021/11/30 13:04:28;;;;;;;11.03;2.50;;;;;;;;;;5004035;28;20262;-77
2021/11/30 13:07:12;;;;;;;14.63;3.63;;;;;;;;;;5035957;28;20220;-77
2021/11/30 13:09:44;;;;;;;13.23;2.90;;;;;;;;;;5028199;28;20320;-77
2021/11/30 13:12:13;;;;;;;9.90;2.70;;;;;;;;;;4997185;28;20227;-78
2021/11/30 13:14:41;;;;;;;11.43;2.80;;;;;;;;;;5014363;28;20697;-77
2021/11/30 13:17:07;;;;;;;9.93;3.10;;;;;;;;;;5010854;28;20213;-78
2021/11/30 13:19:39;;;;;;;10.93;3.03;;;;;;;;;;5011976;28;20244;-77
2021/11/30 13:22:06;;;;;;;11.17;2.67;;;;;;;;;;5012167;28;20243;-77
2021/11/30 13:24:36;;;;;;;11.47;2.90;;;;;;;;;;4993761;28;20216;-78
2021/11/30 13:27:12;;;;;;;11.00;3.00;;;;;;;;;;4985553;28;20315;-77
2021/11/30 13:29:53;;;;;;;15.13;3.33;;;;;;;;;;5018588;28;20242;-78
2021/11/30 13:32:26;;;;;;;12.93;2.53;;;;;;;;;;5023824;28;20224;-77
2021/11/30 13:35:10;;;;;;;10.83;2.70;;;;;;;;;;5028655;28;20827;-78
2021/11/30 13:37:37;;;;;;;8.07;2.77;;;;;;;;;;5036817;28;20220;-77
2021/11/30 13:40:08;;;;;;;8.23;2.60;;;;;;;;;;5017136;28;20218;-77
2021/11/30 13:42:50;;;;;;;9.63;2.60;;;;;;;;;;5034724;28;20717;-77
2021/11/30 13:45:17;;;;;;;8.73;2.53;;;;;;;;;;5000799;28;20220;-77
2021/11/30 13:47:49;;;;;;;9.77;2.93;;;;;;;;;;5018242;28;20211;-77
2021/11/30 13:50:16;;;;;;;12.30;3.03;;;;;;;;;;4999326;28;20578;-76
2021/11/30 13:52:44;;;;;;;10.37;2.63;;;;;;;;;;5016902;28;20606;-79
2021/11/30 13:55:16;;;;;;;12.33;2.90;;;;;;;;;;5011072;28;20218;-77
2021/11/30 13:58:16;;;;;;;14.77;2.83;;;;;;;;;;5039919;28;20222;-79
2021/11/30 14:01:11;;;;;;;9.53;2.53;;;;;;;;;;5025256;28;20231;-76
2021/11/30 14:03:43;;;;;;;13.03;2.97;;;;;;;;;;5001837;28;20235;-77
2021/11/30 14:06:24;;;;;;;12.93;3.37;;;;;;;;;;5028147;28;20224;-76
2021/11/30 14:08:50;;;;;;;17.97;3.83;;;;;;;;;;5010620;28;20228;-77
2021/11/30 14:11:22;;;;;;;15.80;2.83;;;;;;;;;;5015576;28;20246;-76
2021/11/30 14:13:48;;;;;;;12.70;2.47;;;;;;;;;;5032547;28;20255;-77
2021/11/30 14:16:14;;;;;;;9.80;3.60;;;;;;;;;;4982579;28;20224;-78
2021/11/30 14:18:55;;;;;;;11.03;3.63;;;;;;;;;;4999182;28;20241;-78
2021/11/30 14:21:24;;;;;;;17.70;3.40;;;;;;;;;;5014967;28;20216;-77
2021/11/30 14:24:13;;;;;;;12.87;3.60;;;;;;;;;;5019978;28;20270;-77
2021/11/30 14:26:44;;;;;;;11.70;2.70;;;;;;;;;;5016558;28;20236;-79
2021/11/30 14:29:17;;;;;;;11.33;3.07;;;;;;;;;;5009159;28;20225;-79
2021/11/30 14:31:55;;;;;;;7.33;2.30;;;;;;;;;;5017576;28;20220;-78
2021/11/30 14:34:22;;;;;;;14.50;2.83;;;;;;;;;;5036036;28;20937;-77
2021/11/30 14:36:49;;;;;;;10.53;2.67;;;;;;;;;;5009519;28;20287;-77
2021/11/30 14:39:29;;;;;;;10.43;2.70;;;;;;;;;;5014544;28;20223;-77
2021/11/30 14:41:58;;;;;;;12.13;2.73;;;;;;;;;;5015936;28;20228;-77
2021/11/30 14:44:28;;;;;;;13.40;3.60;;;;;;;;;;5015052;28;20637;-76
2021/11/30 14:46:57;;;;;;;9.37;2.53;;;;;;;;;;5032077;28;20589;-77
2021/11/30 14:49:23;;;;;;;10.57;2.90;;;;;;;;;;5015018;28;20232;-77
2021/11/30 14:51:51;;;;;;;12.90;4.53;;;;;;;;;;5000828;28;20216;-77
2021/11/30 14:54:20;;;;;;;11.47;2.53;;;;;;;;;;5029428;28;20252;-77